sensor_id;sensor_type;location;lat;lon;timestamp;P1;durP1;ratioP1;P2;durP2;ratioP2
66256;SDS011;53049;43.446;3.698;2023-04-06T00:01:06;6.97;;;3.63;;
66256;SDS011;53049;43.446;3.698;2023-04-06T00:03:32;7.15;;;3.70;;
66256;SDS011;53049;43.446;3.698;2023-04-06T00:05:58;8.90;;;3.90;;
66256;SDS011;53049;43.446;3.698;2023-04-06T00:08:25;10.65;;;3.88;;
66256;SDS011;53049;43.446;3.698;2023-04-06T00:10:51;9.52;;;4.07;;
66256;SDS011;53049;43.446;3.698;2023-04-06T00:13:17;6.65;;;3.70;;
66256;SDS011;53049;43.446;3.698;2023-04-06T00:15:43;7.55;;;3.70;;
66256;SDS011;53049;43.446;3.698;2023-04-06T00:18:09;8.45;;;4.20;;
66256;SDS011;53049;43.446;3.698;2023-04-06T00:20:36;7.90;;;4.28;;
66256;SDS011;53049;43.446;3.698;2023-04-06T00:23:02;8.35;;;4.25;;
66256;SDS011;53049;43.446;3.698;2023-04-06T00:25:28;7.78;;;4.10;;
66256;SDS011;53049;43.446;3.698;2023-04-06T00:27:54;7.63;;;4.03;;
66256;SDS011;53049;43.446;3.698;2023-04-06T00:30:20;9.18;;;4.40;;
66256;SDS011;53049;43.446;3.698;2023-04-06T00:32:46;8.60;;;4.60;;
66256;SDS011;53049;43.446;3.698;2023-04-06T00:35:12;8.82;;;4.20;;
66256;SDS011;53049;43.446;3.698;2023-04-06T00:37:40;9.25;;;4.32;;
66256;SDS011;53049;43.446;3.698;2023-04-06T00:40:06;7.25;;;3.85;;
66256;SDS011;53049;43.446;3.698;2023-04-06T00:42:32;6.85;;;3.75;;
66256;SDS011;53049;43.446;3.698;2023-04-06T00:44:59;17.02;;;5.15;;
66256;SDS011;53049;43.446;3.698;2023-04-06T00:47:25;7.85;;;3.20;;
66256;SDS011;53049;43.446;3.698;2023-04-06T00:49:52;6.28;;;3.75;;
66256;SDS011;53049;43.446;3.698;2023-04-06T00:52:18;6.43;;;3.90;;
66256;SDS011;53049;43.446;3.698;2023-04-06T00:54:44;6.35;;;3.10;;
66256;SDS011;53049;43.446;3.698;2023-04-06T00:57:11;8.38;;;3.90;;
66256;SDS011;53049;43.446;3.698;2023-04-06T00:59:38;8.45;;;4.63;;
66256;SDS011;53049;43.446;3.698;2023-04-06T01:02:04;9.73;;;4.50;;
66256;SDS011;53049;43.446;3.698;2023-04-06T01:04:31;8.32;;;4.78;;
66256;SDS011;53049;43.446;3.698;2023-04-06T01:06:57;8.80;;;4.28;;
66256;SDS011;53049;43.446;3.698;2023-04-06T01:09:23;8.40;;;3.80;;
66256;SDS011;53049;43.446;3.698;2023-04-06T01:11:49;7.07;;;3.92;;
66256;SDS011;53049;43.446;3.698;2023-04-06T01:14:15;5.15;;;3.15;;
66256;SDS011;53049;43.446;3.698;2023-04-06T01:16:42;5.88;;;2.90;;
66256;SDS011;53049;43.446;3.698;2023-04-06T01:19:08;4.53;;;2.67;;
66256;SDS011;53049;43.446;3.698;2023-04-06T01:21:35;5.10;;;2.55;;
66256;SDS011;53049;43.446;3.698;2023-04-06T01:24:01;5.00;;;2.83;;
66256;SDS011;53049;43.446;3.698;2023-04-06T01:26:27;5.57;;;2.70;;
66256;SDS011;53049;43.446;3.698;2023-04-06T01:28:54;4.22;;;2.70;;
66256;SDS011;53049;43.446;3.698;2023-04-06T01:31:20;5.40;;;2.95;;
66256;SDS011;53049;43.446;3.698;2023-04-06T01:33:47;4.47;;;2.40;;
66256;SDS011;53049;43.446;3.698;2023-04-06T01:36:13;4.35;;;2.55;;
66256;SDS011;53049;43.446;3.698;2023-04-06T01:38:39;4.38;;;2.50;;
66256;SDS011;53049;43.446;3.698;2023-04-06T01:41:06;4.13;;;2.53;;
66256;SDS011;53049;43.446;3.698;2023-04-06T01:43:32;5.63;;;2.70;;
66256;SDS011;53049;43.446;3.698;2023-04-06T01:45:58;4.28;;;2.53;;
66256;SDS011;53049;43.446;3.698;2023-04-06T01:48:25;5.18;;;2.30;;
66256;SDS011;53049;43.446;3.698;2023-04-06T01:50:51;3.75;;;2.35;;
66256;SDS011;53049;43.446;3.698;2023-04-06T01:53:17;4.63;;;2.72;;
66256;SDS011;53049;43.446;3.698;2023-04-06T01:55:43;3.53;;;2.15;;
66256;SDS011;53049;43.446;3.698;2023-04-06T01:58:10;4.25;;;2.22;;
66256;SDS011;53049;43.446;3.698;2023-04-06T02:00:36;4.13;;;2.30;;
66256;SDS011;53049;43.446;3.698;2023-04-06T02:03:02;4.97;;;2.83;;
66256;SDS011;53049;43.446;3.698;2023-04-06T02:05:29;6.18;;;3.10;;
66256;SDS011;53049;43.446;3.698;2023-04-06T02:07:55;7.30;;;3.30;;
66256;SDS011;53049;43.446;3.698;2023-04-06T02:10:22;5.05;;;2.72;;
66256;SDS011;53049;43.446;3.698;2023-04-06T02:12:48;5.57;;;2.78;;
66256;SDS011;53049;43.446;3.698;2023-04-06T02:15:15;6.40;;;2.70;;
66256;SDS011;53049;43.446;3.698;2023-04-06T02:17:41;5.15;;;2.60;;
66256;SDS011;53049;43.446;3.698;2023-04-06T02:20:08;5.13;;;2.78;;
66256;SDS011;53049;43.446;3.698;2023-04-06T02:22:37;4.30;;;2.40;;
66256;SDS011;53049;43.446;3.698;2023-04-06T02:25:03;4.40;;;2.47;;
66256;SDS011;53049;43.446;3.698;2023-04-06T02:27:29;6.35;;;2.53;;
66256;SDS011;53049;43.446;3.698;2023-04-06T02:29:55;4.93;;;2.60;;
66256;SDS011;53049;43.446;3.698;2023-04-06T02:32:21;3.90;;;2.10;;
66256;SDS011;53049;43.446;3.698;2023-04-06T02:34:47;3.63;;;2.40;;
66256;SDS011;53049;43.446;3.698;2023-04-06T02:37:13;3.88;;;2.10;;
66256;SDS011;53049;43.446;3.698;2023-04-06T02:39:39;4.28;;;2.10;;
66256;SDS011;53049;43.446;3.698;2023-04-06T02:42:05;3.38;;;2.20;;
66256;SDS011;53049;43.446;3.698;2023-04-06T02:44:33;4.05;;;2.30;;
66256;SDS011;53049;43.446;3.698;2023-04-06T02:46:59;3.38;;;2.30;;
66256;SDS011;53049;43.446;3.698;2023-04-06T02:49:25;4.15;;;2.00;;
66256;SDS011;53049;43.446;3.698;2023-04-06T02:51:52;4.93;;;2.38;;
66256;SDS011;53049;43.446;3.698;2023-04-06T02:54:18;4.43;;;2.30;;
66256;SDS011;53049;43.446;3.698;2023-04-06T02:56:44;3.05;;;2.10;;
66256;SDS011;53049;43.446;3.698;2023-04-06T02:59:10;3.22;;;2.10;;
66256;SDS011;53049;43.446;3.698;2023-04-06T03:01:36;5.90;;;2.22;;
66256;SDS011;53049;43.446;3.698;2023-04-06T03:04:02;4.22;;;2.28;;
66256;SDS011;53049;43.446;3.698;2023-04-06T03:06:28;3.47;;;2.05;;
66256;SDS011;53049;43.446;3.698;2023-04-06T03:08:55;4.75;;;2.15;;
66256;SDS011;53049;43.446;3.698;2023-04-06T03:11:21;3.88;;;2.13;;
66256;SDS011;53049;43.446;3.698;2023-04-06T03:13:47;3.63;;;2.17;;
66256;SDS011;53049;43.446;3.698;2023-04-06T03:16:13;3.83;;;2.05;;
66256;SDS011;53049;43.446;3.698;2023-04-06T03:18:39;4.22;;;2.28;;
66256;SDS011;53049;43.446;3.698;2023-04-06T03:21:05;3.67;;;2.03;;
66256;SDS011;53049;43.446;3.698;2023-04-06T03:23:31;3.70;;;2.25;;
66256;SDS011;53049;43.446;3.698;2023-04-06T03:25:57;2.72;;;2.05;;
66256;SDS011;53049;43.446;3.698;2023-04-06T03:28:24;3.35;;;2.05;;
66256;SDS011;53049;43.446;3.698;2023-04-06T03:30:50;5.38;;;2.30;;
66256;SDS011;53049;43.446;3.698;2023-04-06T03:33:16;3.88;;;2.20;;
66256;SDS011;53049;43.446;3.698;2023-04-06T03:35:42;3.35;;;2.00;;
66256;SDS011;53049;43.446;3.698;2023-04-06T03:38:08;4.30;;;2.30;;
66256;SDS011;53049;43.446;3.698;2023-04-06T03:40:34;3.83;;;2.20;;
66256;SDS011;53049;43.446;3.698;2023-04-06T03:43:00;3.90;;;1.95;;
66256;SDS011;53049;43.446;3.698;2023-04-06T03:45:26;5.05;;;2.20;;
66256;SDS011;53049;43.446;3.698;2023-04-06T03:47:52;3.00;;;1.73;;
66256;SDS011;53049;43.446;3.698;2023-04-06T03:50:18;4.38;;;2.10;;
66256;SDS011;53049;43.446;3.698;2023-04-06T03:52:44;3.97;;;1.95;;
66256;SDS011;53049;43.446;3.698;2023-04-06T03:55:10;3.33;;;1.90;;
66256;SDS011;53049;43.446;3.698;2023-04-06T03:57:36;3.28;;;1.95;;
66256;SDS011;53049;43.446;3.698;2023-04-06T04:00:03;4.28;;;2.30;;
66256;SDS011;53049;43.446;3.698;2023-04-06T04:02:29;4.13;;;2.35;;
66256;SDS011;53049;43.446;3.698;2023-04-06T04:04:55;3.42;;;2.00;;
66256;SDS011;53049;43.446;3.698;2023-04-06T04:07:21;3.72;;;2.08;;
66256;SDS011;53049;43.446;3.698;2023-04-06T04:09:47;5.32;;;2.20;;
66256;SDS011;53049;43.446;3.698;2023-04-06T04:12:14;3.97;;;2.28;;
66256;SDS011;53049;43.446;3.698;2023-04-06T04:14:41;3.20;;;1.80;;
66256;SDS011;53049;43.446;3.698;2023-04-06T04:17:08;3.60;;;1.73;;
66256;SDS011;53049;43.446;3.698;2023-04-06T04:19:35;5.30;;;2.00;;
66256;SDS011;53049;43.446;3.698;2023-04-06T04:22:01;3.30;;;2.00;;
66256;SDS011;53049;43.446;3.698;2023-04-06T04:24:29;3.42;;;1.92;;
66256;SDS011;53049;43.446;3.698;2023-04-06T04:26:56;3.10;;;1.95;;
66256;SDS011;53049;43.446;3.698;2023-04-06T04:29:22;3.67;;;2.10;;
66256;SDS011;53049;43.446;3.698;2023-04-06T04:31:49;4.00;;;2.10;;
66256;SDS011;53049;43.446;3.698;2023-04-06T04:34:16;3.53;;;2.20;;
66256;SDS011;53049;43.446;3.698;2023-04-06T04:36:42;4.10;;;1.85;;
66256;SDS011;53049;43.446;3.698;2023-04-06T04:39:08;3.47;;;2.00;;
66256;SDS011;53049;43.446;3.698;2023-04-06T04:41:34;2.55;;;1.80;;
66256;SDS011;53049;43.446;3.698;2023-04-06T04:44:00;2.78;;;1.90;;
66256;SDS011;53049;43.446;3.698;2023-04-06T04:46:26;3.47;;;1.90;;
66256;SDS011;53049;43.446;3.698;2023-04-06T04:48:52;3.13;;;1.85;;
66256;SDS011;53049;43.446;3.698;2023-04-06T04:51:18;2.72;;;2.08;;
66256;SDS011;53049;43.446;3.698;2023-04-06T04:53:45;3.53;;;1.95;;
66256;SDS011;53049;43.446;3.698;2023-04-06T04:56:11;5.78;;;2.10;;
66256;SDS011;53049;43.446;3.698;2023-04-06T04:58:37;7.50;;;2.90;;
66256;SDS011;53049;43.446;3.698;2023-04-06T05:01:03;7.63;;;2.63;;
66256;SDS011;53049;43.446;3.698;2023-04-06T05:03:29;7.10;;;2.58;;
66256;SDS011;53049;43.446;3.698;2023-04-06T05:05:55;7.70;;;2.70;;
66256;SDS011;53049;43.446;3.698;2023-04-06T05:08:21;13.27;;;3.55;;
66256;SDS011;53049;43.446;3.698;2023-04-06T05:10:47;10.23;;;2.85;;
66256;SDS011;53049;43.446;3.698;2023-04-06T05:13:14;9.82;;;2.90;;
66256;SDS011;53049;43.446;3.698;2023-04-06T05:15:40;8.63;;;3.00;;
66256;SDS011;53049;43.446;3.698;2023-04-06T05:18:07;5.85;;;2.70;;
66256;SDS011;53049;43.446;3.698;2023-04-06T05:20:33;7.95;;;2.63;;
66256;SDS011;53049;43.446;3.698;2023-04-06T05:23:00;6.45;;;2.60;;
66256;SDS011;53049;43.446;3.698;2023-04-06T05:25:26;5.45;;;2.58;;
66256;SDS011;53049;43.446;3.698;2023-04-06T05:27:52;4.57;;;2.33;;
66256;SDS011;53049;43.446;3.698;2023-04-06T05:30:19;10.43;;;2.88;;
66256;SDS011;53049;43.446;3.698;2023-04-06T05:32:45;11.18;;;3.20;;
66256;SDS011;53049;43.446;3.698;2023-04-06T05:35:11;11.48;;;3.30;;
66256;SDS011;53049;43.446;3.698;2023-04-06T05:37:38;6.03;;;2.80;;
66256;SDS011;53049;43.446;3.698;2023-04-06T05:40:04;5.28;;;2.47;;
66256;SDS011;53049;43.446;3.698;2023-04-06T05:42:40;4.63;;;2.42;;
66256;SDS011;53049;43.446;3.698;2023-04-06T05:45:07;6.68;;;2.85;;
66256;SDS011;53049;43.446;3.698;2023-04-06T05:47:33;4.40;;;2.17;;
66256;SDS011;53049;43.446;3.698;2023-04-06T05:50:00;4.57;;;2.25;;
66256;SDS011;53049;43.446;3.698;2023-04-06T05:52:26;3.40;;;2.20;;
66256;SDS011;53049;43.446;3.698;2023-04-06T05:54:52;3.70;;;2.00;;
66256;SDS011;53049;43.446;3.698;2023-04-06T05:57:18;9.00;;;2.58;;
66256;SDS011;53049;43.446;3.698;2023-04-06T05:59:44;5.10;;;2.42;;
66256;SDS011;53049;43.446;3.698;2023-04-06T06:02:10;8.65;;;2.20;;
66256;SDS011;53049;43.446;3.698;2023-04-06T06:04:36;4.28;;;2.30;;
66256;SDS011;53049;43.446;3.698;2023-04-06T06:07:02;3.97;;;2.10;;
66256;SDS011;53049;43.446;3.698;2023-04-06T06:09:28;2.85;;;1.80;;
66256;SDS011;53049;43.446;3.698;2023-04-06T06:11:54;4.10;;;1.90;;
66256;SDS011;53049;43.446;3.698;2023-04-06T06:14:20;5.55;;;2.00;;
66256;SDS011;53049;43.446;3.698;2023-04-06T06:16:47;5.45;;;2.33;;
66256;SDS011;53049;43.446;3.698;2023-04-06T06:19:13;7.90;;;2.63;;
66256;SDS011;53049;43.446;3.698;2023-04-06T06:21:39;15.00;;;3.60;;
66256;SDS011;53049;43.446;3.698;2023-04-06T06:24:06;22.38;;;3.80;;
66256;SDS011;53049;43.446;3.698;2023-04-06T06:26:32;19.45;;;4.57;;
66256;SDS011;53049;43.446;3.698;2023-04-06T06:29:02;30.73;;;7.32;;
66256;SDS011;53049;43.446;3.698;2023-04-06T06:31:28;31.45;;;6.05;;
66256;SDS011;53049;43.446;3.698;2023-04-06T06:33:54;29.73;;;6.78;;
66256;SDS011;53049;43.446;3.698;2023-04-06T06:36:20;13.30;;;4.55;;
66256;SDS011;53049;43.446;3.698;2023-04-06T06:38:46;33.20;;;7.70;;
66256;SDS011;53049;43.446;3.698;2023-04-06T06:41:12;29.88;;;7.13;;
66256;SDS011;53049;43.446;3.698;2023-04-06T06:43:38;29.33;;;6.38;;
66256;SDS011;53049;43.446;3.698;2023-04-06T06:46:05;43.03;;;7.38;;
66256;SDS011;53049;43.446;3.698;2023-04-06T06:48:31;31.55;;;6.32;;
66256;SDS011;53049;43.446;3.698;2023-04-06T06:50:57;34.72;;;6.20;;
66256;SDS011;53049;43.446;3.698;2023-04-06T06:53:23;40.72;;;6.70;;
66256;SDS011;53049;43.446;3.698;2023-04-06T06:55:49;32.92;;;6.38;;
66256;SDS011;53049;43.446;3.698;2023-04-06T06:58:18;27.05;;;6.80;;
66256;SDS011;53049;43.446;3.698;2023-04-06T07:00:45;40.83;;;7.88;;
66256;SDS011;53049;43.446;3.698;2023-04-06T07:03:11;28.45;;;7.15;;
66256;SDS011;53049;43.446;3.698;2023-04-06T07:05:37;30.38;;;6.55;;
66256;SDS011;53049;43.446;3.698;2023-04-06T07:08:03;26.33;;;5.93;;
66256;SDS011;53049;43.446;3.698;2023-04-06T07:10:29;21.88;;;5.80;;
66256;SDS011;53049;43.446;3.698;2023-04-06T07:12:56;17.38;;;4.30;;
66256;SDS011;53049;43.446;3.698;2023-04-06T07:15:22;17.58;;;4.25;;
66256;SDS011;53049;43.446;3.698;2023-04-06T07:17:48;11.70;;;3.35;;
66256;SDS011;53049;43.446;3.698;2023-04-06T07:20:14;10.82;;;3.30;;
66256;SDS011;53049;43.446;3.698;2023-04-06T07:22:41;16.77;;;3.10;;
66256;SDS011;53049;43.446;3.698;2023-04-06T07:25:07;11.25;;;3.10;;
66256;SDS011;53049;43.446;3.698;2023-04-06T07:27:34;12.73;;;3.25;;
66256;SDS011;53049;43.446;3.698;2023-04-06T07:30:00;12.57;;;3.25;;
66256;SDS011;53049;43.446;3.698;2023-04-06T07:32:26;13.25;;;3.45;;
66256;SDS011;53049;43.446;3.698;2023-04-06T07:34:52;14.30;;;2.80;;
66256;SDS011;53049;43.446;3.698;2023-04-06T07:37:18;10.43;;;2.50;;
66256;SDS011;53049;43.446;3.698;2023-04-06T07:39:44;10.55;;;2.67;;
66256;SDS011;53049;43.446;3.698;2023-04-06T07:42:10;10.20;;;2.80;;
66256;SDS011;53049;43.446;3.698;2023-04-06T07:44:36;6.15;;;2.40;;
66256;SDS011;53049;43.446;3.698;2023-04-06T07:47:02;5.80;;;2.08;;
66256;SDS011;53049;43.446;3.698;2023-04-06T07:49:28;6.90;;;2.10;;
66256;SDS011;53049;43.446;3.698;2023-04-06T07:51:55;6.30;;;2.28;;
66256;SDS011;53049;43.446;3.698;2023-04-06T07:54:21;5.88;;;2.40;;
66256;SDS011;53049;43.446;3.698;2023-04-06T07:56:47;5.63;;;2.15;;
66256;SDS011;53049;43.446;3.698;2023-04-06T07:59:13;4.97;;;2.40;;
66256;SDS011;53049;43.446;3.698;2023-04-06T08:01:40;4.80;;;2.30;;
66256;SDS011;53049;43.446;3.698;2023-04-06T08:04:06;9.63;;;2.63;;
66256;SDS011;53049;43.446;3.698;2023-04-06T08:06:32;5.47;;;2.30;;
66256;SDS011;53049;43.446;3.698;2023-04-06T08:08:59;9.35;;;2.80;;
66256;SDS011;53049;43.446;3.698;2023-04-06T08:11:25;6.85;;;2.80;;
66256;SDS011;53049;43.446;3.698;2023-04-06T08:13:51;5.65;;;2.30;;
66256;SDS011;53049;43.446;3.698;2023-04-06T08:16:17;6.57;;;2.45;;
66256;SDS011;53049;43.446;3.698;2023-04-06T08:18:43;5.13;;;2.20;;
66256;SDS011;53049;43.446;3.698;2023-04-06T08:21:09;4.93;;;2.53;;
66256;SDS011;53049;43.446;3.698;2023-04-06T08:23:35;5.95;;;2.60;;
66256;SDS011;53049;43.446;3.698;2023-04-06T08:26:00;5.80;;;2.50;;
66256;SDS011;53049;43.446;3.698;2023-04-06T08:28:26;5.10;;;2.60;;
66256;SDS011;53049;43.446;3.698;2023-04-06T08:30:52;5.82;;;2.63;;
66256;SDS011;53049;43.446;3.698;2023-04-06T08:33:18;9.38;;;2.70;;
66256;SDS011;53049;43.446;3.698;2023-04-06T08:35:43;4.50;;;2.58;;
66256;SDS011;53049;43.446;3.698;2023-04-06T08:38:09;3.80;;;2.40;;
66256;SDS011;53049;43.446;3.698;2023-04-06T08:40:35;4.03;;;2.33;;
66256;SDS011;53049;43.446;3.698;2023-04-06T08:43:02;5.72;;;2.60;;
66256;SDS011;53049;43.446;3.698;2023-04-06T08:45:33;3.80;;;2.50;;
66256;SDS011;53049;43.446;3.698;2023-04-06T08:47:59;5.13;;;2.60;;
66256;SDS011;53049;43.446;3.698;2023-04-06T08:50:27;5.10;;;2.55;;
66256;SDS011;53049;43.446;3.698;2023-04-06T08:52:55;6.50;;;2.47;;
66256;SDS011;53049;43.446;3.698;2023-04-06T08:55:21;4.10;;;2.33;;
66256;SDS011;53049;43.446;3.698;2023-04-06T08:57:47;5.32;;;2.85;;
66256;SDS011;53049;43.446;3.698;2023-04-06T09:00:14;5.70;;;2.17;;
66256;SDS011;53049;43.446;3.698;2023-04-06T09:02:42;4.90;;;2.63;;
66256;SDS011;53049;43.446;3.698;2023-04-06T09:05:10;4.32;;;2.42;;
66256;SDS011;53049;43.446;3.698;2023-04-06T09:07:36;6.05;;;2.78;;
66256;SDS011;53049;43.446;3.698;2023-04-06T09:10:03;5.25;;;2.45;;
66256;SDS011;53049;43.446;3.698;2023-04-06T09:12:32;6.75;;;3.20;;
66256;SDS011;53049;43.446;3.698;2023-04-06T09:14:58;7.22;;;2.58;;
66256;SDS011;53049;43.446;3.698;2023-04-06T09:17:26;4.55;;;2.58;;
66256;SDS011;53049;43.446;3.698;2023-04-06T09:19:53;5.80;;;2.40;;
66256;SDS011;53049;43.446;3.698;2023-04-06T09:22:19;4.80;;;2.30;;
66256;SDS011;53049;43.446;3.698;2023-04-06T09:24:52;7.07;;;2.55;;
66256;SDS011;53049;43.446;3.698;2023-04-06T09:27:57;4.35;;;2.33;;
66256;SDS011;53049;43.446;3.698;2023-04-06T09:30:11;5.97;;;2.28;;
66256;SDS011;53049;43.446;3.698;2023-04-06T09:33:11;6.05;;;2.60;;
66256;SDS011;53049;43.446;3.698;2023-04-06T09:35:31;4.68;;;2.60;;
66256;SDS011;53049;43.446;3.698;2023-04-06T09:37:57;4.25;;;2.50;;
66256;SDS011;53049;43.446;3.698;2023-04-06T09:40:23;5.75;;;2.28;;
66256;SDS011;53049;43.446;3.698;2023-04-06T09:42:49;5.78;;;2.70;;
66256;SDS011;53049;43.446;3.698;2023-04-06T09:45:17;6.70;;;2.70;;
66256;SDS011;53049;43.446;3.698;2023-04-06T09:47:43;5.95;;;2.22;;
66256;SDS011;53049;43.446;3.698;2023-04-06T09:50:11;6.40;;;2.97;;
66256;SDS011;53049;43.446;3.698;2023-04-06T09:52:40;3.63;;;2.08;;
66256;SDS011;53049;43.446;3.698;2023-04-06T09:55:17;4.30;;;2.30;;
66256;SDS011;53049;43.446;3.698;2023-04-06T09:57:52;4.00;;;2.47;;
66256;SDS011;53049;43.446;3.698;2023-04-06T10:00:22;3.90;;;2.22;;
66256;SDS011;53049;43.446;3.698;2023-04-06T10:05:22;4.25;;;2.20;;
66256;SDS011;53049;43.446;3.698;2023-04-06T10:08:06;4.40;;;2.20;;
66256;SDS011;53049;43.446;3.698;2023-04-06T10:10:35;4.30;;;2.35;;
66256;SDS011;53049;43.446;3.698;2023-04-06T10:13:01;6.45;;;2.17;;
66256;SDS011;53049;43.446;3.698;2023-04-06T10:15:28;3.83;;;2.17;;
66256;SDS011;53049;43.446;3.698;2023-04-06T10:17:56;4.63;;;2.38;;
66256;SDS011;53049;43.446;3.698;2023-04-06T10:23:19;4.07;;;2.00;;
66256;SDS011;53049;43.446;3.698;2023-04-06T10:26:04;4.53;;;2.47;;
66256;SDS011;53049;43.446;3.698;2023-04-06T10:28:31;6.63;;;2.28;;
66256;SDS011;53049;43.446;3.698;2023-04-06T10:31:04;5.72;;;2.33;;
66256;SDS011;53049;43.446;3.698;2023-04-06T10:33:31;4.05;;;1.98;;
66256;SDS011;53049;43.446;3.698;2023-04-06T10:35:57;3.33;;;2.10;;
66256;SDS011;53049;43.446;3.698;2023-04-06T10:38:36;5.20;;;1.98;;
66256;SDS011;53049;43.446;3.698;2023-04-06T10:41:04;3.55;;;1.92;;
66256;SDS011;53049;43.446;3.698;2023-04-06T10:43:32;4.50;;;2.03;;
66256;SDS011;53049;43.446;3.698;2023-04-06T10:46:02;5.47;;;2.85;;
66256;SDS011;53049;43.446;3.698;2023-04-06T10:48:39;5.35;;;2.50;;
66256;SDS011;53049;43.446;3.698;2023-04-06T10:51:13;3.88;;;2.42;;
66256;SDS011;53049;43.446;3.698;2023-04-06T10:53:41;6.13;;;2.63;;
66256;SDS011;53049;43.446;3.698;2023-04-06T10:56:12;5.07;;;2.53;;
66256;SDS011;53049;43.446;3.698;2023-04-06T10:58:49;6.57;;;2.58;;
66256;SDS011;53049;43.446;3.698;2023-04-06T11:01:17;3.50;;;2.20;;
66256;SDS011;53049;43.446;3.698;2023-04-06T11:06:10;3.97;;;2.13;;
66256;SDS011;53049;43.446;3.698;2023-04-06T11:08:35;3.90;;;2.17;;
66256;SDS011;53049;43.446;3.698;2023-04-06T11:11:07;3.92;;;2.33;;
66256;SDS011;53049;43.446;3.698;2023-04-06T11:13:41;4.57;;;2.10;;
66256;SDS011;53049;43.446;3.698;2023-04-06T11:16:15;4.38;;;2.00;;
66256;SDS011;53049;43.446;3.698;2023-04-06T11:18:49;5.88;;;2.25;;
66256;SDS011;53049;43.446;3.698;2023-04-06T11:21:17;5.22;;;2.75;;
66256;SDS011;53049;43.446;3.698;2023-04-06T11:23:43;6.07;;;2.35;;
66256;SDS011;53049;43.446;3.698;2023-04-06T11:26:12;4.93;;;2.33;;
66256;SDS011;53049;43.446;3.698;2023-04-06T11:28:41;4.15;;;2.00;;
66256;SDS011;53049;43.446;3.698;2023-04-06T11:31:10;4.13;;;2.28;;
66256;SDS011;53049;43.446;3.698;2023-04-06T11:33:36;3.28;;;2.03;;
66256;SDS011;53049;43.446;3.698;2023-04-06T11:36:05;5.07;;;2.30;;
66256;SDS011;53049;43.446;3.698;2023-04-06T11:38:31;3.50;;;2.10;;
66256;SDS011;53049;43.446;3.698;2023-04-06T11:40:56;6.18;;;2.33;;
66256;SDS011;53049;43.446;3.698;2023-04-06T11:43:27;5.07;;;2.20;;
66256;SDS011;53049;43.446;3.698;2023-04-06T11:46:00;8.20;;;2.60;;
66256;SDS011;53049;43.446;3.698;2023-04-06T11:48:30;7.47;;;2.88;;
66256;SDS011;53049;43.446;3.698;2023-04-06T11:50:56;6.70;;;2.20;;
66256;SDS011;53049;43.446;3.698;2023-04-06T11:53:23;5.40;;;2.40;;
66256;SDS011;53049;43.446;3.698;2023-04-06T11:55:49;4.38;;;2.33;;
66256;SDS011;53049;43.446;3.698;2023-04-06T11:58:15;4.57;;;2.20;;
66256;SDS011;53049;43.446;3.698;2023-04-06T12:00:41;6.22;;;2.30;;
66256;SDS011;53049;43.446;3.698;2023-04-06T12:03:10;5.00;;;2.15;;
66256;SDS011;53049;43.446;3.698;2023-04-06T12:05:39;4.93;;;2.00;;
66256;SDS011;53049;43.446;3.698;2023-04-06T12:08:05;3.50;;;2.00;;
66256;SDS011;53049;43.446;3.698;2023-04-06T12:10:30;4.25;;;2.60;;
66256;SDS011;53049;43.446;3.698;2023-04-06T12:12:56;4.68;;;2.30;;
66256;SDS011;53049;43.446;3.698;2023-04-06T12:15:22;4.15;;;2.30;;
66256;SDS011;53049;43.446;3.698;2023-04-06T12:17:47;4.28;;;2.22;;
66256;SDS011;53049;43.446;3.698;2023-04-06T12:20:14;4.50;;;2.30;;
66256;SDS011;53049;43.446;3.698;2023-04-06T12:22:40;5.82;;;2.50;;
66256;SDS011;53049;43.446;3.698;2023-04-06T12:25:06;3.70;;;2.30;;
66256;SDS011;53049;43.446;3.698;2023-04-06T12:27:32;4.93;;;2.15;;
66256;SDS011;53049;43.446;3.698;2023-04-06T12:29:58;7.72;;;2.80;;
66256;SDS011;53049;43.446;3.698;2023-04-06T12:32:24;8.20;;;2.72;;
66256;SDS011;53049;43.446;3.698;2023-04-06T12:34:51;6.63;;;2.60;;
66256;SDS011;53049;43.446;3.698;2023-04-06T12:37:17;6.50;;;2.30;;
66256;SDS011;53049;43.446;3.698;2023-04-06T12:39:43;3.65;;;2.20;;
66256;SDS011;53049;43.446;3.698;2023-04-06T12:42:10;6.15;;;2.33;;
66256;SDS011;53049;43.446;3.698;2023-04-06T12:44:36;4.18;;;2.20;;
66256;SDS011;53049;43.446;3.698;2023-04-06T12:47:02;4.05;;;2.60;;
66256;SDS011;53049;43.446;3.698;2023-04-06T12:49:27;3.20;;;2.03;;
66256;SDS011;53049;43.446;3.698;2023-04-06T12:51:53;4.85;;;2.20;;
66256;SDS011;53049;43.446;3.698;2023-04-06T12:54:18;5.28;;;2.50;;
66256;SDS011;53049;43.446;3.698;2023-04-06T12:56:45;5.10;;;2.40;;
66256;SDS011;53049;43.446;3.698;2023-04-06T12:59:11;4.63;;;2.50;;
66256;SDS011;53049;43.446;3.698;2023-04-06T13:01:36;4.00;;;2.30;;
66256;SDS011;53049;43.446;3.698;2023-04-06T13:04:02;6.70;;;2.20;;
66256;SDS011;53049;43.446;3.698;2023-04-06T13:06:28;3.60;;;2.20;;
66256;SDS011;53049;43.446;3.698;2023-04-06T13:08:54;4.82;;;2.42;;
66256;SDS011;53049;43.446;3.698;2023-04-06T13:11:20;4.95;;;2.30;;
66256;SDS011;53049;43.446;3.698;2023-04-06T13:13:49;5.47;;;2.72;;
66256;SDS011;53049;43.446;3.698;2023-04-06T13:16:14;5.55;;;2.42;;
66256;SDS011;53049;43.446;3.698;2023-04-06T13:18:40;3.38;;;1.90;;
66256;SDS011;53049;43.446;3.698;2023-04-06T13:21:06;5.93;;;2.30;;
66256;SDS011;53049;43.446;3.698;2023-04-06T13:23:32;2.70;;;2.10;;
66256;SDS011;53049;43.446;3.698;2023-04-06T13:26:00;7.85;;;2.83;;
66256;SDS011;53049;43.446;3.698;2023-04-06T13:28:28;3.70;;;2.45;;
66256;SDS011;53049;43.446;3.698;2023-04-06T13:30:54;4.25;;;2.20;;
66256;SDS011;53049;43.446;3.698;2023-04-06T13:33:20;4.60;;;2.33;;
66256;SDS011;53049;43.446;3.698;2023-04-06T13:35:46;8.00;;;2.90;;
66256;SDS011;53049;43.446;3.698;2023-04-06T13:38:12;4.50;;;2.10;;
66256;SDS011;53049;43.446;3.698;2023-04-06T13:40:39;5.25;;;2.40;;
66256;SDS011;53049;43.446;3.698;2023-04-06T13:43:05;6.03;;;2.20;;
66256;SDS011;53049;43.446;3.698;2023-04-06T13:45:31;5.72;;;2.72;;
66256;SDS011;53049;43.446;3.698;2023-04-06T13:47:56;3.90;;;2.40;;
66256;SDS011;53049;43.446;3.698;2023-04-06T13:50:22;8.05;;;2.30;;
66256;SDS011;53049;43.446;3.698;2023-04-06T13:52:50;7.57;;;2.70;;
66256;SDS011;53049;43.446;3.698;2023-04-06T13:55:16;4.85;;;2.00;;
66256;SDS011;53049;43.446;3.698;2023-04-06T13:57:41;5.40;;;2.30;;
66256;SDS011;53049;43.446;3.698;2023-04-06T14:00:07;5.20;;;2.60;;
66256;SDS011;53049;43.446;3.698;2023-04-06T14:02:34;5.70;;;2.17;;
66256;SDS011;53049;43.446;3.698;2023-04-06T14:05:00;5.45;;;2.33;;
66256;SDS011;53049;43.446;3.698;2023-04-06T14:07:25;6.68;;;2.38;;
66256;SDS011;53049;43.446;3.698;2023-04-06T14:09:51;6.43;;;2.13;;
66256;SDS011;53049;43.446;3.698;2023-04-06T14:12:17;5.82;;;2.40;;
66256;SDS011;53049;43.446;3.698;2023-04-06T14:14:42;5.20;;;2.10;;
66256;SDS011;53049;43.446;3.698;2023-04-06T14:17:08;5.18;;;2.55;;
66256;SDS011;53049;43.446;3.698;2023-04-06T14:19:34;4.32;;;2.20;;
66256;SDS011;53049;43.446;3.698;2023-04-06T14:22:01;4.93;;;2.17;;
66256;SDS011;53049;43.446;3.698;2023-04-06T14:24:26;4.88;;;2.38;;
66256;SDS011;53049;43.446;3.698;2023-04-06T14:26:52;4.90;;;2.10;;
66256;SDS011;53049;43.446;3.698;2023-04-06T14:29:18;4.15;;;2.22;;
66256;SDS011;53049;43.446;3.698;2023-04-06T14:31:45;7.05;;;2.58;;
66256;SDS011;53049;43.446;3.698;2023-04-06T14:34:12;5.28;;;2.10;;
66256;SDS011;53049;43.446;3.698;2023-04-06T14:36:37;4.13;;;2.20;;
66256;SDS011;53049;43.446;3.698;2023-04-06T14:39:06;5.35;;;2.47;;
66256;SDS011;53049;43.446;3.698;2023-04-06T14:41:33;7.10;;;2.35;;
66256;SDS011;53049;43.446;3.698;2023-04-06T14:43:59;5.70;;;2.20;;
66256;SDS011;53049;43.446;3.698;2023-04-06T14:46:26;4.35;;;2.05;;
66256;SDS011;53049;43.446;3.698;2023-04-06T14:48:56;6.03;;;2.22;;
66256;SDS011;53049;43.446;3.698;2023-04-06T14:51:25;4.75;;;2.15;;